sensor_id;sensor_type;location;lat;lon;timestamp;temperature;humidity
12303;DHT22;6214;48.012;7.862;2023-03-12T00:01:23;5.40;99.90
12303;DHT22;6214;48.012;7.862;2023-03-12T00:03:50;5.50;99.90
12303;DHT22;6214;48.012;7.862;2023-03-12T00:06:18;5.50;99.90
12303;DHT22;6214;48.012;7.862;2023-03-12T00:08:46;5.60;99.90
12303;DHT22;6214;48.012;7.862;2023-03-12T00:11:16;5.50;99.90
12303;DHT22;6214;48.012;7.862;2023-03-12T00:13:43;5.60;99.90
12303;DHT22;6214;48.012;7.862;2023-03-12T00:16:13;5.70;99.90
12303;DHT22;6214;48.012;7.862;2023-03-12T00:18:41;5.70;99.90
12303;DHT22;6214;48.012;7.862;2023-03-12T00:21:08;5.60;99.90
12303;DHT22;6214;48.012;7.862;2023-03-12T00:23:35;5.70;99.90
12303;DHT22;6214;48.012;7.862;2023-03-12T00:26:08;5.80;99.90
12303;DHT22;6214;48.012;7.862;2023-03-12T00:28:35;5.70;99.90
12303;DHT22;6214;48.012;7.862;2023-03-12T00:31:11;5.70;99.90
12303;DHT22;6214;48.012;7.862;2023-03-12T00:33:39;5.60;99.90
12303;DHT22;6214;48.012;7.862;2023-03-12T00:36:06;5.70;99.90
12303;DHT22;6214;48.012;7.862;2023-03-12T00:38:33;5.80;99.90
12303;DHT22;6214;48.012;7.862;2023-03-12T00:41:00;5.90;99.90
12303;DHT22;6214;48.012;7.862;2023-03-12T00:43:27;5.90;99.90
12303;DHT22;6214;48.012;7.862;2023-03-12T00:45:54;6.00;99.90
12303;DHT22;6214;48.012;7.862;2023-03-12T00:48:21;6.00;99.90
12303;DHT22;6214;48.012;7.862;2023-03-12T00:50:48;5.90;99.90
12303;DHT22;6214;48.012;7.862;2023-03-12T00:53:14;5.90;99.90
12303;DHT22;6214;48.012;7.862;2023-03-12T00:55:41;6.00;99.90
12303;DHT22;6214;48.012;7.862;2023-03-12T00:58:08;6.00;99.90
12303;DHT22;6214;48.012;7.862;2023-03-12T01:00:35;5.90;99.90
12303;DHT22;6214;48.012;7.862;2023-03-12T01:03:02;6.00;99.90
12303;DHT22;6214;48.012;7.862;2023-03-12T01:05:29;6.00;99.90
12303;DHT22;6214;48.012;7.862;2023-03-12T01:08:00;5.90;99.90
12303;DHT22;6214;48.012;7.862;2023-03-12T01:10:27;6.00;99.90
12303;DHT22;6214;48.012;7.862;2023-03-12T01:12:54;6.10;99.90
12303;DHT22;6214;48.012;7.862;2023-03-12T01:15:21;6.00;99.90
12303;DHT22;6214;48.012;7.862;2023-03-12T01:17:48;5.90;99.90
12303;DHT22;6214;48.012;7.862;2023-03-12T01:20:15;5.90;99.90
12303;DHT22;6214;48.012;7.862;2023-03-12T01:22:42;5.70;99.90
12303;DHT22;6214;48.012;7.862;2023-03-12T01:25:10;5.70;99.90
12303;DHT22;6214;48.012;7.862;2023-03-12T01:27:37;5.70;99.90
12303;DHT22;6214;48.012;7.862;2023-03-12T01:30:05;5.70;99.90
12303;DHT22;6214;48.012;7.862;2023-03-12T01:32:32;5.60;99.90
12303;DHT22;6214;48.012;7.862;2023-03-12T01:34:59;5.60;99.90
12303;DHT22;6214;48.012;7.862;2023-03-12T01:37:27;5.60;99.90
12303;DHT22;6214;48.012;7.862;2023-03-12T01:39:54;5.80;99.90
12303;DHT22;6214;48.012;7.862;2023-03-12T01:42:20;5.70;99.90
12303;DHT22;6214;48.012;7.862;2023-03-12T01:44:58;5.80;99.90
12303;DHT22;6214;48.012;7.862;2023-03-12T01:47:26;5.70;99.90
12303;DHT22;6214;48.012;7.862;2023-03-12T01:49:59;5.80;99.90
12303;DHT22;6214;48.012;7.862;2023-03-12T01:52:32;6.00;99.90
12303;DHT22;6214;48.012;7.862;2023-03-12T01:55:14;6.20;99.90
12303;DHT22;6214;48.012;7.862;2023-03-12T01:57:42;6.10;99.90
12303;DHT22;6214;48.012;7.862;2023-03-12T02:00:18;6.30;99.90
12303;DHT22;6214;48.012;7.862;2023-03-12T02:02:47;6.40;99.90
12303;DHT22;6214;48.012;7.862;2023-03-12T02:05:24;6.50;99.90
12303;DHT22;6214;48.012;7.862;2023-03-12T02:07:53;6.40;99.90
12303;DHT22;6214;48.012;7.862;2023-03-12T02:10:21;6.30;99.90
12303;DHT22;6214;48.012;7.862;2023-03-12T02:12:48;6.30;99.90
12303;DHT22;6214;48.012;7.862;2023-03-12T02:15:15;6.30;99.90
12303;DHT22;6214;48.012;7.862;2023-03-12T02:17:42;6.40;99.90
12303;DHT22;6214;48.012;7.862;2023-03-12T02:22:38;6.50;99.90
12303;DHT22;6214;48.012;7.862;2023-03-12T02:25:38;6.50;99.90
12303;DHT22;6214;48.012;7.862;2023-03-12T02:28:09;6.60;99.90
12303;DHT22;6214;48.012;7.862;2023-03-12T02:30:40;6.60;99.90
12303;DHT22;6214;48.012;7.862;2023-03-12T02:33:11;6.80;99.90
12303;DHT22;6214;48.012;7.862;2023-03-12T02:35:38;6.70;99.90
12303;DHT22;6214;48.012;7.862;2023-03-12T02:40:52;6.80;99.90
12303;DHT22;6214;48.012;7.862;2023-03-12T02:43:21;6.80;99.90
12303;DHT22;6214;48.012;7.862;2023-03-12T02:45:48;6.90;99.90
12303;DHT22;6214;48.012;7.862;2023-03-12T02:48:15;6.90;99.90
12303;DHT22;6214;48.012;7.862;2023-03-12T02:50:42;6.90;99.90
12303;DHT22;6214;48.012;7.862;2023-03-12T02:53:09;7.00;99.90
12303;DHT22;6214;48.012;7.862;2023-03-12T02:55:36;7.10;99.90
12303;DHT22;6214;48.012;7.862;2023-03-12T02:58:03;7.10;99.90
12303;DHT22;6214;48.012;7.862;2023-03-12T03:00:30;7.10;99.90
12303;DHT22;6214;48.012;7.862;2023-03-12T03:02:58;7.10;99.90
12303;DHT22;6214;48.012;7.862;2023-03-12T03:05:26;7.00;99.90
12303;DHT22;6214;48.012;7.862;2023-03-12T03:07:53;7.10;99.90
12303;DHT22;6214;48.012;7.862;2023-03-12T03:10:20;7.20;99.90
12303;DHT22;6214;48.012;7.862;2023-03-12T03:12:47;7.20;99.90
12303;DHT22;6214;48.012;7.862;2023-03-12T03:15:14;7.30;99.90
12303;DHT22;6214;48.012;7.862;2023-03-12T03:17:41;7.30;99.90
12303;DHT22;6214;48.012;7.862;2023-03-12T03:20:08;7.30;99.90
12303;DHT22;6214;48.012;7.862;2023-03-12T03:22:37;7.30;99.90
12303;DHT22;6214;48.012;7.862;2023-03-12T03:25:06;7.20;99.90
12303;DHT22;6214;48.012;7.862;2023-03-12T03:27:34;7.30;99.90
12303;DHT22;6214;48.012;7.862;2023-03-12T03:30:01;7.30;99.90
12303;DHT22;6214;48.012;7.862;2023-03-12T03:32:28;7.40;99.90
12303;DHT22;6214;48.012;7.862;2023-03-12T03:34:55;7.40;99.90
12303;DHT22;6214;48.012;7.862;2023-03-12T03:37:22;7.40;99.90
12303;DHT22;6214;48.012;7.862;2023-03-12T03:39:49;7.50;99.90
12303;DHT22;6214;48.012;7.862;2023-03-12T03:42:16;7.60;99.90
12303;DHT22;6214;48.012;7.862;2023-03-12T03:44:43;7.70;99.90
12303;DHT22;6214;48.012;7.862;2023-03-12T03:47:10;7.80;99.90
12303;DHT22;6214;48.012;7.862;2023-03-12T03:49:36;7.90;99.90
12303;DHT22;6214;48.012;7.862;2023-03-12T03:52:04;7.90;99.90
12303;DHT22;6214;48.012;7.862;2023-03-12T03:54:32;8.00;99.90
12303;DHT22;6214;48.012;7.862;2023-03-12T03:56:59;8.10;99.90
12303;DHT22;6214;48.012;7.862;2023-03-12T03:59:26;8.10;99.90
12303;DHT22;6214;48.012;7.862;2023-03-12T04:01:53;8.20;99.90
12303;DHT22;6214;48.012;7.862;2023-03-12T04:04:21;8.20;99.90
12303;DHT22;6214;48.012;7.862;2023-03-12T04:06:48;8.10;99.90
12303;DHT22;6214;48.012;7.862;2023-03-12T04:09:15;8.30;99.90
12303;DHT22;6214;48.012;7.862;2023-03-12T04:11:42;8.40;99.90
12303;DHT22;6214;48.012;7.862;2023-03-12T04:14:09;8.40;99.90
12303;DHT22;6214;48.012;7.862;2023-03-12T04:16:36;8.50;99.90
12303;DHT22;6214;48.012;7.862;2023-03-12T04:19:03;8.50;99.90
12303;DHT22;6214;48.012;7.862;2023-03-12T04:21:30;8.60;99.90
12303;DHT22;6214;48.012;7.862;2023-03-12T04:23:57;8.50;99.90
12303;DHT22;6214;48.012;7.862;2023-03-12T04:26:24;8.50;99.90
12303;DHT22;6214;48.012;7.862;2023-03-12T04:28:51;8.40;99.90
12303;DHT22;6214;48.012;7.862;2023-03-12T04:31:18;8.30;99.90
12303;DHT22;6214;48.012;7.862;2023-03-12T04:33:45;8.30;99.90
12303;DHT22;6214;48.012;7.862;2023-03-12T04:36:12;8.30;99.90
12303;DHT22;6214;48.012;7.862;2023-03-12T04:38:40;8.30;99.90
12303;DHT22;6214;48.012;7.862;2023-03-12T04:41:10;8.40;99.90
12303;DHT22;6214;48.012;7.862;2023-03-12T04:43:38;8.50;99.90
12303;DHT22;6214;48.012;7.862;2023-03-12T04:46:06;8.50;99.90
12303;DHT22;6214;48.012;7.862;2023-03-12T04:48:34;8.50;99.90
12303;DHT22;6214;48.012;7.862;2023-03-12T04:51:02;8.50;99.90
12303;DHT22;6214;48.012;7.862;2023-03-12T04:53:29;8.40;99.90
12303;DHT22;6214;48.012;7.862;2023-03-12T04:55:56;8.50;99.90
12303;DHT22;6214;48.012;7.862;2023-03-12T04:58:23;8.50;99.90
12303;DHT22;6214;48.012;7.862;2023-03-12T05:00:50;8.60;99.90
12303;DHT22;6214;48.012;7.862;2023-03-12T05:03:17;8.70;99.90
12303;DHT22;6214;48.012;7.862;2023-03-12T05:05:44;8.70;99.90
12303;DHT22;6214;48.012;7.862;2023-03-12T05:08:11;8.70;99.90
12303;DHT22;6214;48.012;7.862;2023-03-12T05:10:38;8.60;99.90
12303;DHT22;6214;48.012;7.862;2023-03-12T05:13:16;8.60;99.90
12303;DHT22;6214;48.012;7.862;2023-03-12T05:15:44;8.60;99.90
12303;DHT22;6214;48.012;7.862;2023-03-12T05:18:11;8.80;99.90
12303;DHT22;6214;48.012;7.862;2023-03-12T05:20:38;8.90;99.90
12303;DHT22;6214;48.012;7.862;2023-03-12T05:23:05;8.90;99.90
12303;DHT22;6214;48.012;7.862;2023-03-12T05:25:32;8.90;99.90
12303;DHT22;6214;48.012;7.862;2023-03-12T05:27:59;9.00;99.90
12303;DHT22;6214;48.012;7.862;2023-03-12T05:30:26;9.10;99.90
12303;DHT22;6214;48.012;7.862;2023-03-12T05:32:53;9.10;99.90
12303;DHT22;6214;48.012;7.862;2023-03-12T05:35:20;9.10;99.90
12303;DHT22;6214;48.012;7.862;2023-03-12T05:37:47;9.10;99.90
12303;DHT22;6214;48.012;7.862;2023-03-12T05:40:14;9.20;99.90
12303;DHT22;6214;48.012;7.862;2023-03-12T05:42:41;9.20;99.90
12303;DHT22;6214;48.012;7.862;2023-03-12T05:45:08;9.20;99.90
12303;DHT22;6214;48.012;7.862;2023-03-12T05:47:35;9.20;99.90
12303;DHT22;6214;48.012;7.862;2023-03-12T05:50:02;9.30;99.90
12303;DHT22;6214;48.012;7.862;2023-03-12T05:52:29;9.30;99.90
12303;DHT22;6214;48.012;7.862;2023-03-12T05:54:56;9.30;99.90
12303;DHT22;6214;48.012;7.862;2023-03-12T05:57:23;9.40;99.90
12303;DHT22;6214;48.012;7.862;2023-03-12T05:59:50;9.40;99.90
12303;DHT22;6214;48.012;7.862;2023-03-12T06:02:17;9.40;99.90
12303;DHT22;6214;48.012;7.862;2023-03-12T06:04:44;9.50;99.90
12303;DHT22;6214;48.012;7.862;2023-03-12T06:07:11;9.40;99.90
12303;DHT22;6214;48.012;7.862;2023-03-12T06:09:38;9.50;99.90
12303;DHT22;6214;48.012;7.862;2023-03-12T06:12:05;9.60;99.90
12303;DHT22;6214;48.012;7.862;2023-03-12T06:14:32;9.50;99.90
12303;DHT22;6214;48.012;7.862;2023-03-12T06:16:59;9.60;99.90
12303;DHT22;6214;48.012;7.862;2023-03-12T06:19:26;9.60;99.90
12303;DHT22;6214;48.012;7.862;2023-03-12T06:21:53;9.60;99.90
12303;DHT22;6214;48.012;7.862;2023-03-12T06:24:20;9.70;99.90
12303;DHT22;6214;48.012;7.862;2023-03-12T06:26:47;9.70;99.90
12303;DHT22;6214;48.012;7.862;2023-03-12T06:29:14;9.70;99.90
12303;DHT22;6214;48.012;7.862;2023-03-12T06:31:41;9.80;99.90
12303;DHT22;6214;48.012;7.862;2023-03-12T06:34:09;9.90;99.90
12303;DHT22;6214;48.012;7.862;2023-03-12T06:36:36;9.90;99.90
12303;DHT22;6214;48.012;7.862;2023-03-12T06:39:04;10.00;99.90
12303;DHT22;6214;48.012;7.862;2023-03-12T06:41:32;10.00;99.90
12303;DHT22;6214;48.012;7.862;2023-03-12T06:43:59;10.00;99.90
12303;DHT22;6214;48.012;7.862;2023-03-12T06:46:29;10.10;99.90
12303;DHT22;6214;48.012;7.862;2023-03-12T06:48:56;10.10;99.90
12303;DHT22;6214;48.012;7.862;2023-03-12T06:51:23;10.20;99.90
12303;DHT22;6214;48.012;7.862;2023-03-12T06:53:50;10.20;99.90
12303;DHT22;6214;48.012;7.862;2023-03-12T06:56:17;10.20;99.90
12303;DHT22;6214;48.012;7.862;2023-03-12T06:58:44;10.10;99.90
12303;DHT22;6214;48.012;7.862;2023-03-12T07:01:11;10.30;99.90
12303;DHT22;6214;48.012;7.862;2023-03-12T07:03:38;10.40;99.90
12303;DHT22;6214;48.012;7.862;2023-03-12T07:06:15;10.70;99.90
12303;DHT22;6214;48.012;7.862;2023-03-12T07:08:42;10.70;99.90
12303;DHT22;6214;48.012;7.862;2023-03-12T07:11:10;10.70;99.90
12303;DHT22;6214;48.012;7.862;2023-03-12T07:13:37;10.80;99.90
12303;DHT22;6214;48.012;7.862;2023-03-12T07:16:04;10.90;99.90
12303;DHT22;6214;48.012;7.862;2023-03-12T07:18:31;11.30;99.90
12303;DHT22;6214;48.012;7.862;2023-03-12T07:20:59;11.40;99.90
12303;DHT22;6214;48.012;7.862;2023-03-12T07:23:26;11.50;99.90
12303;DHT22;6214;48.012;7.862;2023-03-12T07:25:53;11.40;99.90
12303;DHT22;6214;48.012;7.862;2023-03-12T07:28:20;11.40;99.90
12303;DHT22;6214;48.012;7.862;2023-03-12T07:30:49;11.30;99.90
12303;DHT22;6214;48.012;7.862;2023-03-12T07:33:18;11.20;99.90
12303;DHT22;6214;48.012;7.862;2023-03-12T07:35:46;11.00;99.90
12303;DHT22;6214;48.012;7.862;2023-03-12T07:38:17;11.20;99.90
12303;DHT22;6214;48.012;7.862;2023-03-12T07:40:44;11.40;99.90
12303;DHT22;6214;48.012;7.862;2023-03-12T07:43:16;11.50;99.90
12303;DHT22;6214;48.012;7.862;2023-03-12T07:45:46;12.10;99.90
12303;DHT22;6214;48.012;7.862;2023-03-12T07:48:13;12.80;99.90
12303;DHT22;6214;48.012;7.862;2023-03-12T07:50:40;12.50;99.90
12303;DHT22;6214;48.012;7.862;2023-03-12T07:53:07;12.30;99.90
12303;DHT22;6214;48.012;7.862;2023-03-12T07:55:34;12.30;99.90
12303;DHT22;6214;48.012;7.862;2023-03-12T07:58:01;12.40;99.90
12303;DHT22;6214;48.012;7.862;2023-03-12T08:00:29;12.30;99.90
12303;DHT22;6214;48.012;7.862;2023-03-12T08:02:57;12.20;99.90
12303;DHT22;6214;48.012;7.862;2023-03-12T08:05:24;12.10;99.90
12303;DHT22;6214;48.012;7.862;2023-03-12T08:07:52;12.20;99.90
12303;DHT22;6214;48.012;7.862;2023-03-12T08:10:20;12.20;99.90
12303;DHT22;6214;48.012;7.862;2023-03-12T08:12:48;12.10;99.90
12303;DHT22;6214;48.012;7.862;2023-03-12T08:15:15;12.10;99.90
12303;DHT22;6214;48.012;7.862;2023-03-12T08:17:42;12.10;99.90
12303;DHT22;6214;48.012;7.862;2023-03-12T08:20:10;12.10;99.90
12303;DHT22;6214;48.012;7.862;2023-03-12T08:22:38;12.10;99.90
12303;DHT22;6214;48.012;7.862;2023-03-12T08:25:06;12.10;99.90
12303;DHT22;6214;48.012;7.862;2023-03-12T08:27:34;12.10;99.90
12303;DHT22;6214;48.012;7.862;2023-03-12T08:30:02;12.20;99.90
12303;DHT22;6214;48.012;7.862;2023-03-12T08:32:29;12.30;99.90
12303;DHT22;6214;48.012;7.862;2023-03-12T08:34:57;12.50;99.90
12303;DHT22;6214;48.012;7.862;2023-03-12T08:37:24;12.50;99.90
12303;DHT22;6214;48.012;7.862;2023-03-12T08:39:51;12.70;99.90
12303;DHT22;6214;48.012;7.862;2023-03-12T08:42:18;12.80;99.90
12303;DHT22;6214;48.012;7.862;2023-03-12T08:44:45;12.90;99.90
12303;DHT22;6214;48.012;7.862;2023-03-12T08:47:12;12.90;99.90
12303;DHT22;6214;48.012;7.862;2023-03-12T08:49:39;13.00;99.90
12303;DHT22;6214;48.012;7.862;2023-03-12T08:52:06;13.00;99.90
12303;DHT22;6214;48.012;7.862;2023-03-12T08:54:33;13.00;99.90
12303;DHT22;6214;48.012;7.862;2023-03-12T08:57:00;13.10;99.90
12303;DHT22;6214;48.012;7.862;2023-03-12T08:59:27;13.30;99.90
12303;DHT22;6214;48.012;7.862;2023-03-12T09:01:53;13.30;99.90
12303;DHT22;6214;48.012;7.862;2023-03-12T09:04:20;13.30;99.90
12303;DHT22;6214;48.012;7.862;2023-03-12T09:06:47;13.30;99.90
12303;DHT22;6214;48.012;7.862;2023-03-12T09:09:14;13.30;99.90
12303;DHT22;6214;48.012;7.862;2023-03-12T09:11:41;13.50;99.90
12303;DHT22;6214;48.012;7.862;2023-03-12T09:14:08;13.50;99.90
12303;DHT22;6214;48.012;7.862;2023-03-12T09:16:56;13.50;99.90
12303;DHT22;6214;48.012;7.862;2023-03-12T09:19:23;13.50;99.90
12303;DHT22;6214;48.012;7.862;2023-03-12T09:21:50;13.30;99.90
12303;DHT22;6214;48.012;7.862;2023-03-12T09:24:17;13.20;99.90
12303;DHT22;6214;48.012;7.862;2023-03-12T09:26:45;13.30;99.90
12303;DHT22;6214;48.012;7.862;2023-03-12T09:29:12;13.50;99.90
12303;DHT22;6214;48.012;7.862;2023-03-12T09:31:39;13.50;99.90
12303;DHT22;6214;48.012;7.862;2023-03-12T09:34:06;13.60;99.90
12303;DHT22;6214;48.012;7.862;2023-03-12T09:36:33;13.60;99.90
12303;DHT22;6214;48.012;7.862;2023-03-12T09:39:02;13.70;99.90
12303;DHT22;6214;48.012;7.862;2023-03-12T09:41:32;13.60;99.90
12303;DHT22;6214;48.012;7.862;2023-03-12T09:44:09;13.60;99.90
12303;DHT22;6214;48.012;7.862;2023-03-12T09:46:50;13.80;99.90
12303;DHT22;6214;48.012;7.862;2023-03-12T09:50:15;14.30;99.90
12303;DHT22;6214;48.012;7.862;2023-03-12T09:52:46;14.50;99.90
12303;DHT22;6214;48.012;7.862;2023-03-12T09:55:16;14.60;99.90
12303;DHT22;6214;48.012;7.862;2023-03-12T09:57:46;14.60;99.90
12303;DHT22;6214;48.012;7.862;2023-03-12T10:00:32;14.80;99.90
12303;DHT22;6214;48.012;7.862;2023-03-12T10:11:03;15.30;99.90
12303;DHT22;6214;48.012;7.862;2023-03-12T10:16:07;14.90;99.90
12303;DHT22;6214;48.012;7.862;2023-03-12T10:18:42;14.60;99.90
12303;DHT22;6214;48.012;7.862;2023-03-12T10:24:29;14.40;99.90
12303;DHT22;6214;48.012;7.862;2023-03-12T10:26:59;14.50;99.90
12303;DHT22;6214;48.012;7.862;2023-03-12T10:29:36;14.70;99.90
12303;DHT22;6214;48.012;7.862;2023-03-12T10:34:46;14.90;99.90
12303;DHT22;6214;48.012;7.862;2023-03-12T10:40:16;15.00;99.90
12303;DHT22;6214;48.012;7.862;2023-03-12T10:42:43;14.80;99.90
12303;DHT22;6214;48.012;7.862;2023-03-12T10:47:42;15.00;99.90
12303;DHT22;6214;48.012;7.862;2023-03-12T10:50:22;15.00;99.90
12303;DHT22;6214;48.012;7.862;2023-03-12T10:52:51;14.80;99.90
12303;DHT22;6214;48.012;7.862;2023-03-12T10:55:27;14.80;99.90
12303;DHT22;6214;48.012;7.862;2023-03-12T10:57:58;14.80;99.90
12303;DHT22;6214;48.012;7.862;2023-03-12T11:00:27;14.70;99.90
12303;DHT22;6214;48.012;7.862;2023-03-12T11:03:16;14.80;99.90
12303;DHT22;6214;48.012;7.862;2023-03-12T11:05:49;14.90;99.90
12303;DHT22;6214;48.012;7.862;2023-03-12T11:08:21;15.00;99.90
12303;DHT22;6214;48.012;7.862;2023-03-12T11:10:49;15.40;99.90
12303;DHT22;6214;48.012;7.862;2023-03-12T11:13:35;16.10;99.90
12303;DHT22;6214;48.012;7.862;2023-03-12T11:16:24;16.80;99.90
12303;DHT22;6214;48.012;7.862;2023-03-12T11:19:03;17.50;99.90
12303;DHT22;6214;48.012;7.862;2023-03-12T11:21:35;17.70;99.90
12303;DHT22;6214;48.012;7.862;2023-03-12T11:26:43;17.60;99.90
12303;DHT22;6214;48.012;7.862;2023-03-12T11:29:37;17.10;99.90
12303;DHT22;6214;48.012;7.862;2023-03-12T11:32:45;16.50;99.90
12303;DHT22;6214;48.012;7.862;2023-03-12T11:35:15;15.60;99.90
12303;DHT22;6214;48.012;7.862;2023-03-12T11:38:02;15.20;99.90
12303;DHT22;6214;48.012;7.862;2023-03-12T11:40:55;15.20;99.90
12303;DHT22;6214;48.012;7.862;2023-03-12T12:10:12;15.10;99.90
12303;DHT22;6214;48.012;7.862;2023-03-12T12:15:38;15.40;99.90
12303;DHT22;6214;48.012;7.862;2023-03-12T12:18:56;15.40;99.90
12303;DHT22;6214;48.012;7.862;2023-03-12T12:24:34;16.00;99.90
12303;DHT22;6214;48.012;7.862;2023-03-12T12:27:18;16.40;99.90
12303;DHT22;6214;48.012;7.862;2023-03-12T12:37:59;16.30;99.90
12303;DHT22;6214;48.012;7.862;2023-03-12T12:40:30;16.30;99.90
12303;DHT22;6214;48.012;7.862;2023-03-12T12:45:38;16.10;99.90
12303;DHT22;6214;48.012;7.862;2023-03-12T12:48:14;16.00;99.90
12303;DHT22;6214;48.012;7.862;2023-03-12T12:50:44;15.90;99.90
12303;DHT22;6214;48.012;7.862;2023-03-12T12:56:24;16.50;99.90
12303;DHT22;6214;48.012;7.862;2023-03-12T13:01:47;17.10;99.90
12303;DHT22;6214;48.012;7.862;2023-03-12T13:04:22;17.40;99.90
12303;DHT22;6214;48.012;7.862;2023-03-12T13:09:43;18.00;99.90
12303;DHT22;6214;48.012;7.862;2023-03-12T13:14:41;17.80;99.90
12303;DHT22;6214;48.012;7.862;2023-03-12T13:17:27;17.90;99.90
12303;DHT22;6214;48.012;7.862;2023-03-12T13:22:51;17.40;99.90
12303;DHT22;6214;48.012;7.862;2023-03-12T13:33:53;16.70;99.90
12303;DHT22;6214;48.012;7.862;2023-03-12T13:36:24;17.00;99.90
12303;DHT22;6214;48.012;7.862;2023-03-12T13:44:36;16.80;99.90
12303;DHT22;6214;48.012;7.862;2023-03-12T13:49:53;17.20;99.90
12303;DHT22;6214;48.012;7.862;2023-03-12T13:52:39;17.00;99.90
12303;DHT22;6214;48.012;7.862;2023-03-12T13:55:15;16.90;99.90
12303;DHT22;6214;48.012;7.862;2023-03-12T13:57:49;16.60;99.90
12303;DHT22;6214;48.012;7.862;2023-03-12T14:00:28;16.60;99.90
12303;DHT22;6214;48.012;7.862;2023-03-12T14:03:09;16.30;99.90
12303;DHT22;6214;48.012;7.862;2023-03-12T14:05:58;16.10;99.90
12303;DHT22;6214;48.012;7.862;2023-03-12T14:16:55;16.50;99.90
12303;DHT22;6214;48.012;7.862;2023-03-12T14:19:25;16.60;99.90
12303;DHT22;6214;48.012;7.862;2023-03-12T14:21:55;16.70;99.90
12303;DHT22;6214;48.012;7.862;2023-03-12T14:24:35;16.70;99.90
12303;DHT22;6214;48.012;7.862;2023-03-12T14:27:05;16.60;99.90
12303;DHT22;6214;48.012;7.862;2023-03-12T14:29:48;16.70;99.90
12303;DHT22;6214;48.012;7.862;2023-03-12T14:32:21;16.80;99.90
12303;DHT22;6214;48.012;7.862;2023-03-12T14:35:19;16.90;99.90
12303;DHT22;6214;48.012;7.862;2023-03-12T14:40:32;16.60;99.90
12303;DHT22;6214;48.012;7.862;2023-03-12T14:43:01;16.70;99.90
12303;DHT22;6214;48.012;7.862;2023-03-12T14:45:28;16.90;99.90
12303;DHT22;6214;48.012;7.862;2023-03-12T14:47:57;16.70;99.90
12303;DHT22;6214;48.012;7.862;2023-03-12T14:50:26;16.60;99.90
12303;DHT22;6214;48.012;7.862;2023-03-12T14:52:55;16.60;99.90
12303;DHT22;6214;48.012;7.862;2023-03-12T14:55:35;16.60;99.90
12303;DHT22;6214;48.012;7.862;2023-03-12T14:58:14;16.70;99.90
12303;DHT22;6214;48.012;7.862;2023-03-12T15:00:42;16.80;99.90
12303;DHT22;6214;48.012;7.862;2023-03-12T15:03:14;16.70;99.90
12303;DHT22;6214;48.012;7.862;2023-03-12T15:05:49;16.70;99.90
12303;DHT22;6214;48.012;7.862;2023-03-12T15:08:16;16.60;99.90
12303;DHT22;6214;48.012;7.862;2023-03-12T15:10:50;16.60;99.90
12303;DHT22;6214;48.012;7.862;2023-03-12T15:13:19;16.60;99.90
12303;DHT22;6214;48.012;7.862;2023-03-12T15:15:50;16.50;99.90
12303;DHT22;6214;48.012;7.862;2023-03-12T15:18:29;16.50;99.90
12303;DHT22;6214;48.012;7.862;2023-03-12T15:20:58;16.40;99.90
12303;DHT22;6214;48.012;7.862;2023-03-12T15:23:29;16.20;99.90
12303;DHT22;6214;48.012;7.862;2023-03-12T15:29:01;16.60;99.90
12303;DHT22;6214;48.012;7.862;2023-03-12T15:32:03;16.60;99.90
12303;DHT22;6214;48.012;7.862;2023-03-12T15:34:35;16.50;99.90
12303;DHT22;6214;48.012;7.862;2023-03-12T15:39:48;16.40;99.90
12303;DHT22;6214;48.012;7.862;2023-03-12T15:42:18;16.40;99.90
12303;DHT22;6214;48.012;7.862;2023-03-12T15:44:48;16.20;99.90
12303;DHT22;6214;48.012;7.862;2023-03-12T15:47:19;16.20;99.90
12303;DHT22;6214;48.012;7.862;2023-03-12T15:52:37;16.30;99.90
12303;DHT22;6214;48.012;7.862;2023-03-12T15:57:45;16.30;99.90
12303;DHT22;6214;48.012;7.862;2023-03-12T16:03:03;16.30;99.90
12303;DHT22;6214;48.012;7.862;2023-03-12T16:05:34;16.30;99.90
12303;DHT22;6214;48.012;7.862;2023-03-12T16:10:39;16.10;99.90
12303;DHT22;6214;48.012;7.862;2023-03-12T16:13:08;16.00;99.90
12303;DHT22;6214;48.012;7.862;2023-03-12T16:15:37;16.00;99.90
12303;DHT22;6214;48.012;7.862;2023-03-12T16:18:05;16.00;99.90
12303;DHT22;6214;48.012;7.862;2023-03-12T16:20:36;16.00;99.90
12303;DHT22;6214;48.012;7.862;2023-03-12T16:23:03;15.90;99.90
12303;DHT22;6214;48.012;7.862;2023-03-12T16:25:30;15.80;99.90
12303;DHT22;6214;48.012;7.862;2023-03-12T16:28:01;15.80;99.90
12303;DHT22;6214;48.012;7.862;2023-03-12T16:30:31;15.90;99.90
12303;DHT22;6214;48.012;7.862;2023-03-12T16:33:00;16.00;99.90
12303;DHT22;6214;48.012;7.862;2023-03-12T16:35:28;15.70;99.90
12303;DHT22;6214;48.012;7.862;2023-03-12T16:37:58;15.60;99.90
12303;DHT22;6214;48.012;7.862;2023-03-12T16:40:29;15.50;99.90
12303;DHT22;6214;48.012;7.862;2023-03-12T16:43:01;15.40;99.90
12303;DHT22;6214;48.012;7.862;2023-03-12T16:45:30;15.30;99.90
12303;DHT22;6214;48.012;7.862;2023-03-12T16:48:01;15.30;99.90
12303;DHT22;6214;48.012;7.862;2023-03-12T16:50:29;15.30;99.90
12303;DHT22;6214;48.012;7.862;2023-03-12T16:52:56;15.20;99.90
12303;DHT22;6214;48.012;7.862;2023-03-12T16:55:28;15.00;99.90
12303;DHT22;6214;48.012;7.862;2023-03-12T16:58:00;15.00;99.90
12303;DHT22;6214;48.012;7.862;2023-03-12T17:00:29;15.00;99.90
12303;DHT22;6214;48.012;7.862;2023-03-12T17:02:58;14.90;99.90
12303;DHT22;6214;48.012;7.862;2023-03-12T17:05:29;14.90;99.90
12303;DHT22;6214;48.012;7.862;2023-03-12T17:07:56;14.80;99.90
12303;DHT22;6214;48.012;7.862;2023-03-12T17:10:24;14.70;99.90
12303;DHT22;6214;48.012;7.862;2023-03-12T17:12:52;14.70;99.90
12303;DHT22;6214;48.012;7.862;2023-03-12T17:15:23;14.60;99.90
12303;DHT22;6214;48.012;7.862;2023-03-12T17:17:52;14.40;99.90
12303;DHT22;6214;48.012;7.862;2023-03-12T17:20:23;14.40;99.90
12303;DHT22;6214;48.012;7.862;2023-03-12T17:22:50;14.40;99.90
12303;DHT22;6214;48.012;7.862;2023-03-12T17:25:29;14.30;99.90
12303;DHT22;6214;48.012;7.862;2023-03-12T17:27:56;14.20;99.90
12303;DHT22;6214;48.012;7.862;2023-03-12T17:30:24;14.20;99.90
12303;DHT22;6214;48.012;7.862;2023-03-12T17:32:52;14.20;99.90
12303;DHT22;6214;48.012;7.862;2023-03-12T17:35:19;14.10;99.90
12303;DHT22;6214;48.012;7.862;2023-03-12T17:37:46;14.00;99.90
12303;DHT22;6214;48.012;7.862;2023-03-12T17:40:14;14.10;99.90
12303;DHT22;6214;48.012;7.862;2023-03-12T17:42:41;14.00;99.90
12303;DHT22;6214;48.012;7.862;2023-03-12T17:45:09;14.00;99.90
12303;DHT22;6214;48.012;7.862;2023-03-12T17:47:36;14.20;99.90
12303;DHT22;6214;48.012;7.862;2023-03-12T17:50:04;14.20;99.90
12303;DHT22;6214;48.012;7.862;2023-03-12T17:52:32;14.20;99.90
12303;DHT22;6214;48.012;7.862;2023-03-12T17:54:59;14.20;99.90
12303;DHT22;6214;48.012;7.862;2023-03-12T17:57:27;14.30;99.90
12303;DHT22;6214;48.012;7.862;2023-03-12T17:59:54;14.30;99.90
12303;DHT22;6214;48.012;7.862;2023-03-12T18:02:21;14.40;99.90
12303;DHT22;6214;48.012;7.862;2023-03-12T18:04:48;14.40;99.90
12303;DHT22;6214;48.012;7.862;2023-03-12T18:07:15;14.40;99.90
12303;DHT22;6214;48.012;7.862;2023-03-12T18:09:43;14.30;99.90
12303;DHT22;6214;48.012;7.862;2023-03-12T18:12:10;14.30;99.90
12303;DHT22;6214;48.012;7.862;2023-03-12T18:14:38;14.20;99.90
12303;DHT22;6214;48.012;7.862;2023-03-12T18:17:05;14.20;99.90
12303;DHT22;6214;48.012;7.862;2023-03-12T18:19:32;14.20;99.90
12303;DHT22;6214;48.012;7.862;2023-03-12T18:22:01;14.10;99.90